sensor_id;sensor_type;location;lat;lon;timestamp;temperature;humidity
31675;DHT22;18276;45.520;11.018;2023-02-28T00:01:44;6.00;56.70
31675;DHT22;18276;45.520;11.018;2023-02-28T00:04:11;6.00;56.70
31675;DHT22;18276;45.520;11.018;2023-02-28T00:06:38;6.00;56.80
31675;DHT22;18276;45.520;11.018;2023-02-28T00:09:05;6.00;56.90
31675;DHT22;18276;45.520;11.018;2023-02-28T00:11:32;6.00;56.90
31675;DHT22;18276;45.520;11.018;2023-02-28T00:13:59;6.00;57.00
31675;DHT22;18276;45.520;11.018;2023-02-28T00:16:26;5.90;56.70
31675;DHT22;18276;45.520;11.018;2023-02-28T00:18:53;6.00;56.80
31675;DHT22;18276;45.520;11.018;2023-02-28T00:21:20;6.00;56.70
31675;DHT22;18276;45.520;11.018;2023-02-28T00:23:47;5.90;56.80
31675;DHT22;18276;45.520;11.018;2023-02-28T00:26:14;5.90;56.90
31675;DHT22;18276;45.520;11.018;2023-02-28T00:28:44;5.90;56.90
31675;DHT22;18276;45.520;11.018;2023-02-28T00:31:11;5.90;57.00
31675;DHT22;18276;45.520;11.018;2023-02-28T00:33:38;5.90;56.90
31675;DHT22;18276;45.520;11.018;2023-02-28T00:36:08;5.90;57.00
31675;DHT22;18276;45.520;11.018;2023-02-28T00:38:36;5.90;56.90
31675;DHT22;18276;45.520;11.018;2023-02-28T00:41:03;5.80;56.70
31675;DHT22;18276;45.520;11.018;2023-02-28T00:43:36;5.70;56.70
31675;DHT22;18276;45.520;11.018;2023-02-28T00:46:03;5.70;56.90
31675;DHT22;18276;45.520;11.018;2023-02-28T00:48:31;5.70;57.10
31675;DHT22;18276;45.520;11.018;2023-02-28T00:50:58;5.70;56.90
31675;DHT22;18276;45.520;11.018;2023-02-28T00:53:25;5.70;56.80
31675;DHT22;18276;45.520;11.018;2023-02-28T00:55:52;5.70;56.70
31675;DHT22;18276;45.520;11.018;2023-02-28T00:58:19;5.70;56.70
31675;DHT22;18276;45.520;11.018;2023-02-28T01:00:47;5.60;56.80
31675;DHT22;18276;45.520;11.018;2023-02-28T01:03:18;5.60;57.00
31675;DHT22;18276;45.520;11.018;2023-02-28T01:05:46;5.60;57.10
31675;DHT22;18276;45.520;11.018;2023-02-28T01:08:16;5.60;57.10
31675;DHT22;18276;45.520;11.018;2023-02-28T01:10:43;5.60;57.10
31675;DHT22;18276;45.520;11.018;2023-02-28T01:13:10;5.60;57.00
31675;DHT22;18276;45.520;11.018;2023-02-28T01:15:37;5.60;56.90
31675;DHT22;18276;45.520;11.018;2023-02-28T01:18:06;5.60;56.80
31675;DHT22;18276;45.520;11.018;2023-02-28T01:20:32;5.60;56.60
31675;DHT22;18276;45.520;11.018;2023-02-28T01:23:00;5.60;56.60
31675;DHT22;18276;45.520;11.018;2023-02-28T01:25:27;5.60;56.60
31675;DHT22;18276;45.520;11.018;2023-02-28T01:27:54;5.70;56.70
31675;DHT22;18276;45.520;11.018;2023-02-28T01:30:21;5.60;56.60
31675;DHT22;18276;45.520;11.018;2023-02-28T01:32:47;5.70;56.50
31675;DHT22;18276;45.520;11.018;2023-02-28T01:35:14;5.70;56.60
31675;DHT22;18276;45.520;11.018;2023-02-28T01:37:41;5.70;56.60
31675;DHT22;18276;45.520;11.018;2023-02-28T01:40:08;5.70;56.60
31675;DHT22;18276;45.520;11.018;2023-02-28T01:42:35;5.70;56.60
31675;DHT22;18276;45.520;11.018;2023-02-28T01:47:48;5.70;56.60
31675;DHT22;18276;45.520;11.018;2023-02-28T01:50:17;5.70;56.60
31675;DHT22;18276;45.520;11.018;2023-02-28T01:52:45;5.60;56.50
31675;DHT22;18276;45.520;11.018;2023-02-28T01:55:13;5.70;56.60
31675;DHT22;18276;45.520;11.018;2023-02-28T01:57:43;5.70;56.60
31675;DHT22;18276;45.520;11.018;2023-02-28T02:00:15;5.60;56.60
31675;DHT22;18276;45.520;11.018;2023-02-28T02:02:49;5.70;56.70
31675;DHT22;18276;45.520;11.018;2023-02-28T02:05:18;5.60;56.60
31675;DHT22;18276;45.520;11.018;2023-02-28T02:07:46;5.70;56.70
31675;DHT22;18276;45.520;11.018;2023-02-28T02:10:14;5.60;56.60
31675;DHT22;18276;45.520;11.018;2023-02-28T02:15:18;5.70;56.50
31675;DHT22;18276;45.520;11.018;2023-02-28T02:17:48;5.70;56.50
31675;DHT22;18276;45.520;11.018;2023-02-28T02:20:23;5.70;56.50
31675;DHT22;18276;45.520;11.018;2023-02-28T02:33:45;5.70;56.50
31675;DHT22;18276;45.520;11.018;2023-02-28T02:38:48;5.70;56.50
31675;DHT22;18276;45.520;11.018;2023-02-28T02:41:18;5.70;56.50
31675;DHT22;18276;45.520;11.018;2023-02-28T02:48:48;5.70;56.50
31675;DHT22;18276;45.520;11.018;2023-02-28T02:51:17;5.60;56.50
31675;DHT22;18276;45.520;11.018;2023-02-28T02:53:52;5.70;56.50
31675;DHT22;18276;45.520;11.018;2023-02-28T02:56:23;5.70;56.50
31675;DHT22;18276;45.520;11.018;2023-02-28T02:58:51;5.70;56.50
31675;DHT22;18276;45.520;11.018;2023-02-28T03:01:21;5.70;56.50
31675;DHT22;18276;45.520;11.018;2023-02-28T03:03:59;5.70;56.40
31675;DHT22;18276;45.520;11.018;2023-02-28T03:06:27;5.70;56.30
31675;DHT22;18276;45.520;11.018;2023-02-28T03:08:53;5.70;56.30
31675;DHT22;18276;45.520;11.018;2023-02-28T03:11:22;5.70;56.30
31675;DHT22;18276;45.520;11.018;2023-02-28T03:13:54;5.70;56.30
31675;DHT22;18276;45.520;11.018;2023-02-28T03:24:35;5.70;56.40
31675;DHT22;18276;45.520;11.018;2023-02-28T03:27:09;5.70;56.40
31675;DHT22;18276;45.520;11.018;2023-02-28T03:29:46;5.70;56.30
31675;DHT22;18276;45.520;11.018;2023-02-28T03:32:24;5.70;56.40
31675;DHT22;18276;45.520;11.018;2023-02-28T03:34:57;5.70;56.40
31675;DHT22;18276;45.520;11.018;2023-02-28T03:37:25;5.70;56.40
31675;DHT22;18276;45.520;11.018;2023-02-28T03:39:55;5.70;56.40
31675;DHT22;18276;45.520;11.018;2023-02-28T03:42:24;5.70;56.30
31675;DHT22;18276;45.520;11.018;2023-02-28T03:45:36;5.60;56.20
31675;DHT22;18276;45.520;11.018;2023-02-28T03:47:48;5.60;56.20
31675;DHT22;18276;45.520;11.018;2023-02-28T03:50:27;5.60;56.30
31675;DHT22;18276;45.520;11.018;2023-02-28T03:52:58;5.50;56.50
31675;DHT22;18276;45.520;11.018;2023-02-28T03:55:32;5.50;56.60
31675;DHT22;18276;45.520;11.018;2023-02-28T03:58:05;5.40;56.70
31675;DHT22;18276;45.520;11.018;2023-02-28T04:00:37;5.40;56.70
31675;DHT22;18276;45.520;11.018;2023-02-28T04:03:04;5.40;56.70
31675;DHT22;18276;45.520;11.018;2023-02-28T04:05:31;5.40;56.80
31675;DHT22;18276;45.520;11.018;2023-02-28T04:08:05;5.40;56.80
31675;DHT22;18276;45.520;11.018;2023-02-28T04:10:32;5.40;56.90
31675;DHT22;18276;45.520;11.018;2023-02-28T04:12:59;5.40;56.90
31675;DHT22;18276;45.520;11.018;2023-02-28T04:15:26;5.40;57.00
31675;DHT22;18276;45.520;11.018;2023-02-28T04:17:53;5.40;57.10
31675;DHT22;18276;45.520;11.018;2023-02-28T04:20:20;5.40;57.20
31675;DHT22;18276;45.520;11.018;2023-02-28T04:22:48;5.40;57.20
31675;DHT22;18276;45.520;11.018;2023-02-28T04:25:15;5.50;57.10
31675;DHT22;18276;45.520;11.018;2023-02-28T04:27:42;5.40;57.10
31675;DHT22;18276;45.520;11.018;2023-02-28T04:30:12;5.40;57.10
31675;DHT22;18276;45.520;11.018;2023-02-28T04:32:39;5.50;57.10
31675;DHT22;18276;45.520;11.018;2023-02-28T04:35:06;5.40;57.00
31675;DHT22;18276;45.520;11.018;2023-02-28T04:37:33;5.30;57.10
31675;DHT22;18276;45.520;11.018;2023-02-28T04:40:01;5.30;57.10
31675;DHT22;18276;45.520;11.018;2023-02-28T04:42:29;5.20;57.10
31675;DHT22;18276;45.520;11.018;2023-02-28T04:45:02;5.30;57.20
31675;DHT22;18276;45.520;11.018;2023-02-28T04:47:29;5.20;57.90
31675;DHT22;18276;45.520;11.018;2023-02-28T04:49:56;5.20;57.30
31675;DHT22;18276;45.520;11.018;2023-02-28T04:52:23;5.10;57.40
31675;DHT22;18276;45.520;11.018;2023-02-28T04:54:50;5.10;57.50
31675;DHT22;18276;45.520;11.018;2023-02-28T04:57:17;5.10;57.70
31675;DHT22;18276;45.520;11.018;2023-02-28T04:59:43;5.10;57.80
31675;DHT22;18276;45.520;11.018;2023-02-28T05:02:10;5.00;57.90
31675;DHT22;18276;45.520;11.018;2023-02-28T05:04:37;5.00;57.90
31675;DHT22;18276;45.520;11.018;2023-02-28T05:07:04;5.10;57.90
31675;DHT22;18276;45.520;11.018;2023-02-28T05:09:31;5.10;57.80
31675;DHT22;18276;45.520;11.018;2023-02-28T05:11:59;5.10;57.80
31675;DHT22;18276;45.520;11.018;2023-02-28T05:14:26;5.10;57.80
31675;DHT22;18276;45.520;11.018;2023-02-28T05:16:53;5.10;57.80
31675;DHT22;18276;45.520;11.018;2023-02-28T05:19:20;5.10;57.80
31675;DHT22;18276;45.520;11.018;2023-02-28T05:21:49;5.10;57.80
31675;DHT22;18276;45.520;11.018;2023-02-28T05:24:16;5.10;57.80
31675;DHT22;18276;45.520;11.018;2023-02-28T05:26:50;5.20;58.10
31675;DHT22;18276;45.520;11.018;2023-02-28T05:29:18;5.10;58.80
31675;DHT22;18276;45.520;11.018;2023-02-28T05:31:45;5.00;59.40
31675;DHT22;18276;45.520;11.018;2023-02-28T05:34:12;5.00;60.00
31675;DHT22;18276;45.520;11.018;2023-02-28T05:36:39;4.90;60.60
31675;DHT22;18276;45.520;11.018;2023-02-28T05:39:06;4.90;61.00
31675;DHT22;18276;45.520;11.018;2023-02-28T05:41:34;4.80;61.40
31675;DHT22;18276;45.520;11.018;2023-02-28T05:44:00;4.80;61.80
31675;DHT22;18276;45.520;11.018;2023-02-28T05:46:28;4.80;62.90
31675;DHT22;18276;45.520;11.018;2023-02-28T05:48:55;4.70;62.30
31675;DHT22;18276;45.520;11.018;2023-02-28T05:51:24;4.70;63.10
31675;DHT22;18276;45.520;11.018;2023-02-28T05:53:51;4.60;62.80
31675;DHT22;18276;45.520;11.018;2023-02-28T05:56:18;4.60;63.10
31675;DHT22;18276;45.520;11.018;2023-02-28T05:58:45;4.50;63.40
31675;DHT22;18276;45.520;11.018;2023-02-28T06:01:23;4.50;63.50
31675;DHT22;18276;45.520;11.018;2023-02-28T06:03:50;4.40;63.90
31675;DHT22;18276;45.520;11.018;2023-02-28T06:06:17;4.40;64.10
31675;DHT22;18276;45.520;11.018;2023-02-28T06:08:44;4.50;64.20
31675;DHT22;18276;45.520;11.018;2023-02-28T06:11:11;4.50;64.40
31675;DHT22;18276;45.520;11.018;2023-02-28T06:13:38;4.50;64.40
31675;DHT22;18276;45.520;11.018;2023-02-28T06:16:05;4.60;64.30
31675;DHT22;18276;45.520;11.018;2023-02-28T06:18:32;4.70;64.30
31675;DHT22;18276;45.520;11.018;2023-02-28T06:20:59;4.70;64.10
31675;DHT22;18276;45.520;11.018;2023-02-28T06:23:25;4.80;64.00
31675;DHT22;18276;45.520;11.018;2023-02-28T06:25:52;4.90;64.00
31675;DHT22;18276;45.520;11.018;2023-02-28T06:28:19;4.90;63.80
31675;DHT22;18276;45.520;11.018;2023-02-28T06:30:46;5.00;63.80
31675;DHT22;18276;45.520;11.018;2023-02-28T06:33:13;5.10;63.80
31675;DHT22;18276;45.520;11.018;2023-02-28T06:35:43;5.20;63.70
31675;DHT22;18276;45.520;11.018;2023-02-28T06:38:10;5.20;63.60
31675;DHT22;18276;45.520;11.018;2023-02-28T06:40:37;5.30;63.50
31675;DHT22;18276;45.520;11.018;2023-02-28T06:43:04;5.50;63.50
31675;DHT22;18276;45.520;11.018;2023-02-28T06:45:31;6.50;62.80
31675;DHT22;18276;45.520;11.018;2023-02-28T06:47:57;7.90;60.10
31675;DHT22;18276;45.520;11.018;2023-02-28T06:50:27;9.30;57.30
31675;DHT22;18276;45.520;11.018;2023-02-28T06:52:56;10.60;54.80
31675;DHT22;18276;45.520;11.018;2023-02-28T06:55:22;11.60;52.60
31675;DHT22;18276;45.520;11.018;2023-02-28T06:57:49;12.20;50.80
31675;DHT22;18276;45.520;11.018;2023-02-28T07:00:17;12.60;49.70
31675;DHT22;18276;45.520;11.018;2023-02-28T07:02:44;12.80;49.00
31675;DHT22;18276;45.520;11.018;2023-02-28T07:05:11;12.90;48.80
31675;DHT22;18276;45.520;11.018;2023-02-28T07:07:38;12.90;48.80
31675;DHT22;18276;45.520;11.018;2023-02-28T07:10:07;12.90;48.20
31675;DHT22;18276;45.520;11.018;2023-02-28T07:12:34;12.90;47.90
31675;DHT22;18276;45.520;11.018;2023-02-28T07:15:04;12.90;47.90
31675;DHT22;18276;45.520;11.018;2023-02-28T07:17:31;12.90;47.40
31675;DHT22;18276;45.520;11.018;2023-02-28T07:19:57;13.00;47.60
31675;DHT22;18276;45.520;11.018;2023-02-28T07:22:24;13.10;47.80
31675;DHT22;18276;45.520;11.018;2023-02-28T07:24:51;13.30;47.80
31675;DHT22;18276;45.520;11.018;2023-02-28T07:27:18;13.50;46.90
31675;DHT22;18276;45.520;11.018;2023-02-28T07:29:52;13.80;46.00
31675;DHT22;18276;45.520;11.018;2023-02-28T07:32:19;14.10;44.20
31675;DHT22;18276;45.520;11.018;2023-02-28T07:34:46;14.40;44.60
31675;DHT22;18276;45.520;11.018;2023-02-28T07:37:13;15.00;43.80
31675;DHT22;18276;45.520;11.018;2023-02-28T07:39:41;15.60;41.50
31675;DHT22;18276;45.520;11.018;2023-02-28T07:42:10;16.50;41.40
31675;DHT22;18276;45.520;11.018;2023-02-28T07:44:39;17.70;39.70
31675;DHT22;18276;45.520;11.018;2023-02-28T07:47:09;19.00;37.80
31675;DHT22;18276;45.520;11.018;2023-02-28T07:49:37;20.10;35.60
31675;DHT22;18276;45.520;11.018;2023-02-28T07:52:05;20.50;34.10
31675;DHT22;18276;45.520;11.018;2023-02-28T07:54:32;19.80;33.40
31675;DHT22;18276;45.520;11.018;2023-02-28T07:57:00;19.40;33.90
31675;DHT22;18276;45.520;11.018;2023-02-28T07:59:27;19.40;34.10
31675;DHT22;18276;45.520;11.018;2023-02-28T08:01:57;18.80;34.30
31675;DHT22;18276;45.520;11.018;2023-02-28T08:04:25;17.90;35.10
31675;DHT22;18276;45.520;11.018;2023-02-28T08:06:51;17.20;36.20
31675;DHT22;18276;45.520;11.018;2023-02-28T08:09:19;16.70;37.00
31675;DHT22;18276;45.520;11.018;2023-02-28T08:11:46;16.30;37.50
31675;DHT22;18276;45.520;11.018;2023-02-28T08:14:13;16.40;38.00
31675;DHT22;18276;45.520;11.018;2023-02-28T08:16:40;16.60;37.70
31675;DHT22;18276;45.520;11.018;2023-02-28T08:19:07;16.50;37.50
31675;DHT22;18276;45.520;11.018;2023-02-28T08:21:34;16.70;37.60
31675;DHT22;18276;45.520;11.018;2023-02-28T08:24:01;17.60;36.90
31675;DHT22;18276;45.520;11.018;2023-02-28T08:26:28;18.30;35.50
31675;DHT22;18276;45.520;11.018;2023-02-28T08:28:54;18.80;34.70
31675;DHT22;18276;45.520;11.018;2023-02-28T08:31:23;19.10;34.10
31675;DHT22;18276;45.520;11.018;2023-02-28T08:33:50;19.50;33.70
31675;DHT22;18276;45.520;11.018;2023-02-28T08:36:19;20.20;33.00
31675;DHT22;18276;45.520;11.018;2023-02-28T08:38:46;21.00;32.00
31675;DHT22;18276;45.520;11.018;2023-02-28T08:41:13;21.40;31.00
31675;DHT22;18276;45.520;11.018;2023-02-28T08:43:40;21.70;30.50
31675;DHT22;18276;45.520;11.018;2023-02-28T08:46:07;22.10;30.00
31675;DHT22;18276;45.520;11.018;2023-02-28T08:48:35;22.60;29.40
31675;DHT22;18276;45.520;11.018;2023-02-28T08:51:05;22.50;28.50
31675;DHT22;18276;45.520;11.018;2023-02-28T08:53:35;21.70;29.00
31675;DHT22;18276;45.520;11.018;2023-02-28T08:56:03;20.60;29.50
31675;DHT22;18276;45.520;11.018;2023-02-28T08:58:30;19.60;30.30
31675;DHT22;18276;45.520;11.018;2023-02-28T09:00:57;18.60;31.00
31675;DHT22;18276;45.520;11.018;2023-02-28T09:03:25;17.50;32.40
31675;DHT22;18276;45.520;11.018;2023-02-28T09:08:20;16.30;34.60
31675;DHT22;18276;45.520;11.018;2023-02-28T09:10:47;16.40;35.00
31675;DHT22;18276;45.520;11.018;2023-02-28T09:13:14;16.80;35.40
31675;DHT22;18276;45.520;11.018;2023-02-28T09:15:41;17.50;34.40
31675;DHT22;18276;45.520;11.018;2023-02-28T09:18:08;18.20;34.20
31675;DHT22;18276;45.520;11.018;2023-02-28T09:20:37;18.70;33.00
31675;DHT22;18276;45.520;11.018;2023-02-28T09:23:03;19.50;33.50
31675;DHT22;18276;45.520;11.018;2023-02-28T09:25:30;20.70;32.80
31675;DHT22;18276;45.520;11.018;2023-02-28T09:27:57;21.70;31.20
31675;DHT22;18276;45.520;11.018;2023-02-28T09:30:24;22.40;29.50
31675;DHT22;18276;45.520;11.018;2023-02-28T09:32:51;22.60;28.40
31675;DHT22;18276;45.520;11.018;2023-02-28T09:35:21;23.00;28.10
31675;DHT22;18276;45.520;11.018;2023-02-28T09:37:50;23.30;27.60
31675;DHT22;18276;45.520;11.018;2023-02-28T09:40:21;23.90;27.40
31675;DHT22;18276;45.520;11.018;2023-02-28T09:42:50;24.60;26.90
31675;DHT22;18276;45.520;11.018;2023-02-28T09:47:56;25.40;25.60
31675;DHT22;18276;45.520;11.018;2023-02-28T09:52:52;26.00;24.30
31675;DHT22;18276;45.520;11.018;2023-02-28T10:00:57;25.70;23.80
31675;DHT22;18276;45.520;11.018;2023-02-28T10:03:35;26.10;23.80
31675;DHT22;18276;45.520;11.018;2023-02-28T10:06:14;26.00;23.20
31675;DHT22;18276;45.520;11.018;2023-02-28T10:08:45;25.50;23.20
31675;DHT22;18276;45.520;11.018;2023-02-28T10:11:16;25.10;23.60
31675;DHT22;18276;45.520;11.018;2023-02-28T10:13:53;25.40;24.30
31675;DHT22;18276;45.520;11.018;2023-02-28T10:19:14;25.00;23.50
31675;DHT22;18276;45.520;11.018;2023-02-28T10:21:47;25.10;23.60
31675;DHT22;18276;45.520;11.018;2023-02-28T10:24:39;25.10;23.20
31675;DHT22;18276;45.520;11.018;2023-02-28T10:27:13;25.10;23.30
31675;DHT22;18276;45.520;11.018;2023-02-28T10:29:42;24.90;23.10
31675;DHT22;18276;45.520;11.018;2023-02-28T10:32:18;24.70;23.80
31675;DHT22;18276;45.520;11.018;2023-02-28T10:34:52;25.40;24.10
31675;DHT22;18276;45.520;11.018;2023-02-28T10:37:22;25.60;23.10
31675;DHT22;18276;45.520;11.018;2023-02-28T10:39:48;25.20;22.90
31675;DHT22;18276;45.520;11.018;2023-02-28T10:42:20;25.30;24.00
31675;DHT22;18276;45.520;11.018;2023-02-28T10:44:47;25.30;23.30
31675;DHT22;18276;45.520;11.018;2023-02-28T10:47:15;25.00;23.20
31675;DHT22;18276;45.520;11.018;2023-02-28T10:49:49;25.10;23.20
31675;DHT22;18276;45.520;11.018;2023-02-28T10:52:32;25.20;23.50
31675;DHT22;18276;45.520;11.018;2023-02-28T10:55:20;25.70;23.40
31675;DHT22;18276;45.520;11.018;2023-02-28T10:57:48;25.90;23.00
31675;DHT22;18276;45.520;11.018;2023-02-28T11:00:17;26.00;23.10
31675;DHT22;18276;45.520;11.018;2023-02-28T11:02:45;26.10;22.90
31675;DHT22;18276;45.520;11.018;2023-02-28T11:07:56;26.60;22.80
31675;DHT22;18276;45.520;11.018;2023-02-28T11:10:25;26.50;22.60
31675;DHT22;18276;45.520;11.018;2023-02-28T11:12:56;26.40;22.80
31675;DHT22;18276;45.520;11.018;2023-02-28T11:15:26;26.30;22.60
31675;DHT22;18276;45.520;11.018;2023-02-28T11:18:00;26.00;23.00
31675;DHT22;18276;45.520;11.018;2023-02-28T11:20:28;25.70;23.10
31675;DHT22;18276;45.520;11.018;2023-02-28T11:22:57;25.60;22.90
31675;DHT22;18276;45.520;11.018;2023-02-28T11:25:25;25.90;23.50
31675;DHT22;18276;45.520;11.018;2023-02-28T11:27:54;26.20;23.20
31675;DHT22;18276;45.520;11.018;2023-02-28T11:30:31;26.30;22.70
31675;DHT22;18276;45.520;11.018;2023-02-28T11:33:00;26.10;22.90
31675;DHT22;18276;45.520;11.018;2023-02-28T11:35:31;26.00;22.90
31675;DHT22;18276;45.520;11.018;2023-02-28T11:38:02;25.60;23.00
31675;DHT22;18276;45.520;11.018;2023-02-28T11:43:05;25.90;23.60
31675;DHT22;18276;45.520;11.018;2023-02-28T11:48:22;25.80;22.70
31675;DHT22;18276;45.520;11.018;2023-02-28T11:50:57;25.50;23.20
31675;DHT22;18276;45.520;11.018;2023-02-28T11:53:35;25.50;23.20
31675;DHT22;18276;45.520;11.018;2023-02-28T12:11:25;27.10;21.80
31675;DHT22;18276;45.520;11.018;2023-02-28T12:24:52;27.40;22.20
31675;DHT22;18276;45.520;11.018;2023-02-28T12:27:22;27.60;22.10
31675;DHT22;18276;45.520;11.018;2023-02-28T12:30:27;27.10;22.10
31675;DHT22;18276;45.520;11.018;2023-02-28T12:32:50;27.00;22.20
31675;DHT22;18276;45.520;11.018;2023-02-28T12:35:21;26.70;22.40
31675;DHT22;18276;45.520;11.018;2023-02-28T12:37:51;26.60;23.00
31675;DHT22;18276;45.520;11.018;2023-02-28T12:40:22;26.70;22.80
31675;DHT22;18276;45.520;11.018;2023-02-28T12:42:50;26.60;23.00
31675;DHT22;18276;45.520;11.018;2023-02-28T12:45:19;26.70;23.00
31675;DHT22;18276;45.520;11.018;2023-02-28T12:47:49;26.90;22.90
31675;DHT22;18276;45.520;11.018;2023-02-28T12:50:16;27.10;22.60
31675;DHT22;18276;45.520;11.018;2023-02-28T12:55:15;26.50;22.50
31675;DHT22;18276;45.520;11.018;2023-02-28T12:57:48;26.30;22.90
31675;DHT22;18276;45.520;11.018;2023-02-28T13:00:18;26.50;23.10
31675;DHT22;18276;45.520;11.018;2023-02-28T13:02:55;26.70;23.00
31675;DHT22;18276;45.520;11.018;2023-02-28T13:10:45;25.90;22.90
31675;DHT22;18276;45.520;11.018;2023-02-28T13:13:19;25.60;23.30
31675;DHT22;18276;45.520;11.018;2023-02-28T13:15:56;25.80;23.60
31675;DHT22;18276;45.520;11.018;2023-02-28T13:21:04;26.20;23.00
31675;DHT22;18276;45.520;11.018;2023-02-28T13:23:39;26.30;23.30
31675;DHT22;18276;45.520;11.018;2023-02-28T13:26:07;26.70;23.30
31675;DHT22;18276;45.520;11.018;2023-02-28T13:31:22;26.60;23.20
31675;DHT22;18276;45.520;11.018;2023-02-28T13:36:26;25.60;23.60
31675;DHT22;18276;45.520;11.018;2023-02-28T13:38:59;25.00;24.00
31675;DHT22;18276;45.520;11.018;2023-02-28T13:44:01;24.90;24.70
31675;DHT22;18276;45.520;11.018;2023-02-28T13:46:29;25.20;24.40
31675;DHT22;18276;45.520;11.018;2023-02-28T13:48:56;25.30;24.20
31675;DHT22;18276;45.520;11.018;2023-02-28T13:51:44;25.10;24.20
31675;DHT22;18276;45.520;11.018;2023-02-28T13:59:29;24.90;24.50
31675;DHT22;18276;45.520;11.018;2023-02-28T14:02:28;24.60;24.60
31675;DHT22;18276;45.520;11.018;2023-02-28T14:05:04;24.10;25.20
31675;DHT22;18276;45.520;11.018;2023-02-28T14:07:44;24.10;25.40
31675;DHT22;18276;45.520;11.018;2023-02-28T14:10:20;23.70;25.00
31675;DHT22;18276;45.520;11.018;2023-02-28T14:15:44;23.40;26.10
31675;DHT22;18276;45.520;11.018;2023-02-28T14:18:27;23.40;26.20
31675;DHT22;18276;45.520;11.018;2023-02-28T14:20:57;23.40;26.40
31675;DHT22;18276;45.520;11.018;2023-02-28T14:23:40;23.90;26.40
31675;DHT22;18276;45.520;11.018;2023-02-28T14:31:39;23.30;26.20
31675;DHT22;18276;45.520;11.018;2023-02-28T14:34:26;23.10;26.50
31675;DHT22;18276;45.520;11.018;2023-02-28T14:36:58;23.00;26.80
31675;DHT22;18276;45.520;11.018;2023-02-28T14:39:26;23.10;26.70
31675;DHT22;18276;45.520;11.018;2023-02-28T14:41:57;23.00;26.60
31675;DHT22;18276;45.520;11.018;2023-02-28T14:44:31;22.80;26.80
31675;DHT22;18276;45.520;11.018;2023-02-28T14:47:02;22.40;27.00
31675;DHT22;18276;45.520;11.018;2023-02-28T14:49:34;21.90;27.20
31675;DHT22;18276;45.520;11.018;2023-02-28T14:54:29;20.90;28.60
31675;DHT22;18276;45.520;11.018;2023-02-28T14:56:56;20.70;29.00
31675;DHT22;18276;45.520;11.018;2023-02-28T15:01:52;20.60;29.30
31675;DHT22;18276;45.520;11.018;2023-02-28T15:04:25;20.70;29.50
31675;DHT22;18276;45.520;11.018;2023-02-28T15:07:11;20.90;29.60
31675;DHT22;18276;45.520;11.018;2023-02-28T15:09:40;21.00;29.40
31675;DHT22;18276;45.520;11.018;2023-02-28T15:12:07;20.60;29.50
31675;DHT22;18276;45.520;11.018;2023-02-28T15:14:34;19.90;29.90
31675;DHT22;18276;45.520;11.018;2023-02-28T15:17:08;19.40;30.70
31675;DHT22;18276;45.520;11.018;2023-02-28T15:19:36;19.00;32.30
31675;DHT22;18276;45.520;11.018;2023-02-28T15:22:06;18.70;32.10
31675;DHT22;18276;45.520;11.018;2023-02-28T15:27:03;17.50;33.20
31675;DHT22;18276;45.520;11.018;2023-02-28T15:29:32;16.90;34.10
31675;DHT22;18276;45.520;11.018;2023-02-28T15:32:02;16.60;34.80
31675;DHT22;18276;45.520;11.018;2023-02-28T15:37:27;16.60;36.90
31675;DHT22;18276;45.520;11.018;2023-02-28T15:39:55;16.30;36.20
31675;DHT22;18276;45.520;11.018;2023-02-28T15:42:23;15.60;36.90
31675;DHT22;18276;45.520;11.018;2023-02-28T15:44:53;14.90;37.80
31675;DHT22;18276;45.520;11.018;2023-02-28T15:47:24;14.30;38.80
31675;DHT22;18276;45.520;11.018;2023-02-28T15:49:53;13.90;39.60
31675;DHT22;18276;45.520;11.018;2023-02-28T15:55:20;13.30;42.30
31675;DHT22;18276;45.520;11.018;2023-02-28T15:57:51;12.80;42.80
31675;DHT22;18276;45.520;11.018;2023-02-28T16:00:22;12.60;43.30
31675;DHT22;18276;45.520;11.018;2023-02-28T16:02:50;12.30;44.10
31675;DHT22;18276;45.520;11.018;2023-02-28T16:05:30;12.10;44.60
31675;DHT22;18276;45.520;11.018;2023-02-28T16:08:01;12.00;45.00
31675;DHT22;18276;45.520;11.018;2023-02-28T16:10:29;11.90;45.90
31675;DHT22;18276;45.520;11.018;2023-02-28T16:12:57;11.70;46.00
31675;DHT22;18276;45.520;11.018;2023-02-28T16:15:27;11.60;46.40
31675;DHT22;18276;45.520;11.018;2023-02-28T16:17:56;11.40;47.40
31675;DHT22;18276;45.520;11.018;2023-02-28T16:20:27;11.20;47.70
31675;DHT22;18276;45.520;11.018;2023-02-28T16:22:55;11.10;48.40
31675;DHT22;18276;45.520;11.018;2023-02-28T16:25:28;10.90;48.60
31675;DHT22;18276;45.520;11.018;2023-02-28T16:27:56;10.90;49.30
31675;DHT22;18276;45.520;11.018;2023-02-28T16:30:28;10.70;49.40
31675;DHT22;18276;45.520;11.018;2023-02-28T16:32:58;10.60;49.60
31675;DHT22;18276;45.520;11.018;2023-02-28T16:35:26;10.50;50.70
31675;DHT22;18276;45.520;11.018;2023-02-28T16:37:53;10.40;50.50
31675;DHT22;18276;45.520;11.018;2023-02-28T16:40:23;10.30;50.50
31675;DHT22;18276;45.520;11.018;2023-02-28T16:42:58;10.20;51.40
31675;DHT22;18276;45.520;11.018;2023-02-28T16:45:26;10.20;52.00
31675;DHT22;18276;45.520;11.018;2023-02-28T16:47:54;10.00;51.90
31675;DHT22;18276;45.520;11.018;2023-02-28T16:50:27;9.90;51.90
31675;DHT22;18276;45.520;11.018;2023-02-28T16:52:54;9.90;52.10
31675;DHT22;18276;45.520;11.018;2023-02-28T16:55:23;9.80;52.00
31675;DHT22;18276;45.520;11.018;2023-02-28T16:57:56;9.80;52.40
31675;DHT22;18276;45.520;11.018;2023-02-28T17:00:25;9.70;53.00
31675;DHT22;18276;45.520;11.018;2023-02-28T17:02:53;9.60;52.60
31675;DHT22;18276;45.520;11.018;2023-02-28T17:05:20;9.50;52.70
31675;DHT22;18276;45.520;11.018;2023-02-28T17:07:48;9.50;52.90
31675;DHT22;18276;45.520;11.018;2023-02-28T17:10:19;9.40;53.10
31675;DHT22;18276;45.520;11.018;2023-02-28T17:12:46;9.30;53.50
31675;DHT22;18276;45.520;11.018;2023-02-28T17:15:15;9.30;53.80
31675;DHT22;18276;45.520;11.018;2023-02-28T17:17:43;9.20;54.20
31675;DHT22;18276;45.520;11.018;2023-02-28T17:20:18;9.10;54.10
31675;DHT22;18276;45.520;11.018;2023-02-28T17:22:50;9.10;54.40
31675;DHT22;18276;45.520;11.018;2023-02-28T17:25:17;9.00;54.50
31675;DHT22;18276;45.520;11.018;2023-02-28T17:27:44;9.00;54.80
31675;DHT22;18276;45.520;11.018;2023-02-28T17:30:19;8.90;55.20
31675;DHT22;18276;45.520;11.018;2023-02-28T17:32:47;8.80;55.60
31675;DHT22;18276;45.520;11.018;2023-02-28T17:35:15;8.70;55.60
31675;DHT22;18276;45.520;11.018;2023-02-28T17:37:42;8.60;55.90
31675;DHT22;18276;45.520;11.018;2023-02-28T17:40:14;8.50;56.30
31675;DHT22;18276;45.520;11.018;2023-02-28T17:42:42;8.40;56.70
31675;DHT22;18276;45.520;11.018;2023-02-28T17:45:09;8.40;56.80